Time;durP1;ratioP1;P1;durP2;ratioP2;P2;SDS_P1;SDS_P2;PMS_P1;PMS_P2;Temp;Humidity;BMP_temperature;BMP_pressure;BME280_temperature;BME280_humidity;BME280_pressure;Samples;Min_cycle;Max_cycle;Signal;HPM_P1;HPM_P2
2023/10/18 00:00:34;;;;;;;0.00;0.00;;;;;;;12.94;68.80;99767.00;7353124;19;20110;-59
2023/10/18 00:03:01;;;;;;;0.00;0.00;;;;;;;12.94;69.62;99755.66;7355951;19;20075;-59
2023/10/18 00:05:27;;;;;;;0.10;0.10;;;;;;;12.92;68.68;99752.25;7355435;19;20019;-59
2023/10/18 00:07:54;;;;;;;0.00;0.00;;;;;;;12.90;69.74;99748.88;7358589;19;20010;-59
2023/10/18 00:10:20;;;;;;;0.08;0.08;;;;;;;12.73;69.57;99716.47;7354807;19;20456;-59
2023/10/18 00:12:45;;;;;;;0.10;0.10;;;;;;;12.90;69.82;99743.63;7358513;19;20011;-59
2023/10/18 00:15:14;;;;;;;0.00;0.00;;;;;;;12.88;69.80;99735.84;7356078;19;20011;-60
2023/10/18 00:17:40;;;;;;;0.10;0.10;;;;;;;12.88;69.61;99740.25;7358017;19;20014;-59
2023/10/18 00:20:13;;;;;;;0.00;0.00;;;;;;;12.88;70.05;99735.00;7352072;19;20035;-59
2023/10/18 00:22:40;;;;;;;0.10;0.10;;;;;;;12.85;70.27;99719.41;7359232;19;20397;-59
2023/10/18 00:25:06;;;;;;;0.00;0.00;;;;;;;12.84;70.03;99718.56;7356865;19;20017;-59
2023/10/18 00:27:32;;;;;;;0.38;0.10;;;;;;;12.69;70.29;99693.09;7360443;19;20095;-58
2023/10/18 00:29:58;;;;;;;0.10;0.10;;;;;;;12.82;70.43;99719.56;7353719;19;20046;-59
2023/10/18 00:32:23;;;;;;;0.00;0.00;;;;;;;12.64;70.43;99680.22;7357248;19;20478;-58
2023/10/18 00:34:49;;;;;;;0.00;0.00;;;;;;;12.82;70.14;99711.69;7360391;19;20902;-58
2023/10/18 00:37:21;;;;;;;0.00;0.00;;;;;;;12.81;69.99;99694.28;7356705;19;20580;-59
2023/10/18 00:39:47;;;;;;;0.00;0.00;;;;;;;12.78;70.57;99689.22;7359631;19;20119;-59
2023/10/18 00:42:28;;;;;;;0.10;0.10;;;;;;;12.61;70.30;99651.53;7366207;19;20102;-59
2023/10/18 00:45:02;;;;;;;0.10;0.10;;;;;;;12.80;70.99;99679.50;7363295;19;20700;-59
2023/10/18 00:47:29;;;;;;;0.00;0.00;;;;;;;12.79;71.10;99683.03;7367439;19;20474;-59
2023/10/18 00:49:54;;;;;;;0.05;0.05;;;;;;;12.80;70.29;99676.88;7365920;19;20123;-59
2023/10/18 00:52:23;;;;;;;0.00;0.00;;;;;;;12.78;71.24;99669.09;7371255;19;20006;-59
2023/10/18 00:54:48;;;;;;;0.00;0.00;;;;;;;12.78;71.61;99660.41;7370324;19;20454;-59
2023/10/18 00:57:20;;;;;;;0.10;0.10;;;;;;;12.67;71.03;99648.66;7360364;19;20024;-59
2023/10/18 00:59:45;;;;;;;0.10;0.10;;;;;;;12.78;71.40;99670.88;7365257;19;20617;-59
2023/10/18 01:02:13;;;;;;;0.00;0.00;;;;;;;12.70;71.59;99658.13;7365649;19;20042;-59
2023/10/18 01:04:40;;;;;;;0.10;0.10;;;;;;;12.78;71.76;99673.50;7366752;19;20110;-60
2023/10/18 01:07:15;;;;;;;0.10;0.10;;;;;;;12.64;71.77;99643.56;7359741;19;20015;-60
2023/10/18 01:09:47;;;;;;;0.10;0.10;;;;;;;12.78;71.47;99676.94;7372768;19;20014;-59
2023/10/18 01:12:14;;;;;;;0.00;0.00;;;;;;;12.78;72.27;99676.13;7367029;19;20489;-59
2023/10/18 01:14:40;;;;;;;0.10;0.10;;;;;;;12.78;72.11;99660.41;7360753;19;20022;-59
2023/10/18 01:17:06;;;;;;;0.10;0.10;;;;;;;12.79;72.42;99657.69;7372906;19;20006;-58
2023/10/18 01:19:33;;;;;;;0.10;0.10;;;;;;;12.80;72.52;99658.53;7370363;19;20871;-59
2023/10/18 01:21:58;;;;;;;0.10;0.10;;;;;;;12.79;72.28;99639.34;7361814;19;20024;-60
2023/10/18 01:24:28;;;;;;;0.10;0.10;;;;;;;12.83;72.24;99642.69;7362416;19;20479;-59
2023/10/18 01:26:53;;;;;;;0.00;0.00;;;;;;;12.82;72.86;99647.03;7366326;19;20409;-59
2023/10/18 01:29:18;;;;;;;0.00;0.00;;;;;;;12.83;72.64;99640.91;7356947;19;20011;-59
2023/10/18 01:31:45;;;;;;;0.10;0.10;;;;;;;12.85;72.89;99643.44;7361737;19;20007;-59
2023/10/18 01:34:11;;;;;;;0.10;0.10;;;;;;;12.71;72.84;99613.50;7368437;19;20546;-59
2023/10/18 01:36:39;;;;;;;0.10;0.10;;;;;;;12.75;72.81;99608.13;7368180;19;20017;-59
2023/10/18 01:39:20;;;;;;;0.00;0.00;;;;;;;12.83;73.32;99611.25;7367614;19;20029;-59
2023/10/18 01:41:55;;;;;;;0.10;0.10;;;;;;;12.92;73.00;99603.75;7369969;19;20453;-60
2023/10/18 01:44:27;;;;;;;0.00;0.00;;;;;;;12.84;73.18;99578.88;7373757;19;20018;-59
2023/10/18 01:46:55;;;;;;;0.10;0.10;;;;;;;12.94;72.65;99577.47;7373103;19;20008;-59
2023/10/18 01:49:25;;;;;;;0.10;0.10;;;;;;;12.93;73.19;99581.88;7372944;19;20018;-59
2023/10/18 01:51:52;;;;;;;0.10;0.10;;;;;;;12.95;73.09;99582.63;7364403;19;20023;-60
2023/10/18 01:54:24;;;;;;;0.00;0.00;;;;;;;12.86;72.73;99553.44;7360745;19;20038;-59
2023/10/18 01:56:51;;;;;;;0.10;0.10;;;;;;;12.98;72.84;99573.78;7371171;19;20007;-59
2023/10/18 01:59:17;;;;;;;0.10;0.10;;;;;;;12.86;72.51;99548.19;7371212;19;20011;-60
2023/10/18 02:01:53;;;;;;;0.10;0.10;;;;;;;12.99;72.72;99554.50;7362103;19;20010;-59
2023/10/18 02:04:25;;;;;;;0.10;0.10;;;;;;;13.00;72.31;99543.09;7365144;19;20010;-59
2023/10/18 02:06:57;;;;;;;0.10;0.10;;;;;;;12.82;72.24;99505.56;7365766;19;20010;-60
2023/10/18 02:09:35;;;;;;;0.10;0.10;;;;;;;12.98;71.78;99529.25;7362057;19;20023;-59
2023/10/18 02:12:04;;;;;;;0.10;0.10;;;;;;;13.04;72.23;99549.88;7364308;19;19999;-59
2023/10/18 02:14:33;;;;;;;0.03;0.03;;;;;;;13.04;72.48;99525.47;7363805;19;20320;-60
2023/10/18 02:16:59;;;;;;;0.00;0.00;;;;;;;13.04;72.66;99526.31;7371270;19;20510;-59
2023/10/18 02:19:26;;;;;;;0.05;0.05;;;;;;;13.01;72.62;99513.34;7364586;19;20398;-60
2023/10/18 02:21:52;;;;;;;;;;;;;;;13.11;69.79;99517.19;7364860;19;20034;-59
2023/10/18 02:24:18;;;;;;;0.08;0.08;;;;;;;13.09;72.33;99523.44;7355651;19;19930;-60
2023/10/18 02:26:55;;;;;;;0.10;0.10;;;;;;;13.08;72.63;99512.13;7366246;19;20002;-59
2023/10/18 02:29:22;;;;;;;0.10;0.10;;;;;;;13.03;72.59;99502.78;7364018;19;20015;-59
2023/10/18 02:31:49;;;;;;;0.10;0.10;;;;;;;13.07;72.65;99499.91;7365494;19;20042;-60
2023/10/18 02:34:14;;;;;;;0.10;0.10;;;;;;;13.09;72.86;99502.47;7362106;19;20018;-59
2023/10/18 02:36:47;;;;;;;0.10;0.10;;;;;;;13.09;72.54;99503.31;7362114;19;20018;-60
2023/10/18 02:39:22;;;;;;;0.10;0.10;;;;;;;13.07;72.72;99493.81;7369491;19;20033;-59
2023/10/18 02:41:49;;;;;;;0.10;0.10;;;;;;;13.06;72.81;99487.75;7364067;19;20777;-60
2023/10/18 02:44:21;;;;;;;0.10;0.10;;;;;;;13.01;72.65;99470.56;7366570;19;20018;-59
2023/10/18 02:46:51;;;;;;;0.00;0.00;;;;;;;13.04;72.88;99470.41;7366576;19;20700;-59
2023/10/18 02:49:17;;;;;;;0.10;0.10;;;;;;;12.97;72.48;99462.00;7362318;19;20010;-60
2023/10/18 02:51:44;;;;;;;0.10;0.10;;;;;;;13.05;72.85;99465.09;7364567;19;20888;-59
2023/10/18 02:54:16;;;;;;;0.10;0.10;;;;;;;13.05;72.37;99449.38;7358965;19;20031;-60
2023/10/18 02:56:55;;;;;;;0.10;0.10;;;;;;;13.09;72.74;99439.56;7364624;19;20074;-59
2023/10/18 02:59:23;;;;;;;0.00;0.00;;;;;;;13.06;73.10;99435.31;7362788;19;20025;-60
2023/10/18 03:01:49;;;;;;;0.10;0.10;;;;;;;13.07;72.67;99431.78;7364566;19;20842;-60
2023/10/18 03:04:15;;;;;;;0.10;0.10;;;;;;;13.07;73.16;99431.78;7344152;19;20035;-60
2023/10/18 03:06:42;;;;;;;0.10;0.10;;;;;;;13.08;72.94;99428.25;7365953;19;20798;-59
2023/10/18 03:11:53;;;;;;;0.00;0.00;;;;;;;13.10;72.80;99415.91;7372955;19;20487;-60
2023/10/18 03:14:23;;;;;;;0.10;0.10;;;;;;;13.10;73.09;99399.31;7362459;19;20037;-59
2023/10/18 03:16:48;;;;;;;0.00;0.00;;;;;;;13.11;72.87;99396.63;7365073;19;20047;-60
2023/10/18 03:19:14;;;;;;;0.00;0.00;;;;;;;13.14;72.83;99393.00;7333360;19;20018;-60
2023/10/18 03:21:47;;;;;;;0.10;0.10;;;;;;;13.14;72.99;99380.72;7366573;19;20007;-59
2023/10/18 03:24:12;;;;;;;0.10;0.10;;;;;;;13.16;72.61;99378.03;7355740;19;20022;-59
2023/10/18 03:26:38;;;;;;;0.00;0.00;;;;;;;13.18;72.72;99377.03;7364485;19;20010;-59
2023/10/18 03:29:16;;;;;;;0.10;0.10;;;;;;;13.18;72.84;99353.44;7366442;19;20011;-60
2023/10/18 03:31:47;;;;;;;0.00;0.00;;;;;;;13.19;72.91;99352.50;7366631;19;20006;-60
2023/10/18 03:34:22;;;;;;;0.00;0.00;;;;;;;13.20;72.63;99354.19;7356710;19;20015;-60
2023/10/18 03:36:54;;;;;;;0.10;0.10;;;;;;;13.22;72.87;99352.34;7362711;19;20006;-59
2023/10/18 03:39:21;;;;;;;0.10;0.10;;;;;;;13.23;72.85;99338.31;7369022;19;20089;-59
2023/10/18 03:41:49;;;;;;;0.10;0.10;;;;;;;13.23;72.96;99340.94;7371411;19;20383;-60
2023/10/18 03:44:21;;;;;;;0.10;0.10;;;;;;;13.26;73.33;99346.94;7363705;19;20110;-60
2023/10/18 03:46:48;;;;;;;0.03;0.03;;;;;;;13.27;72.86;99343.38;7359783;19;20034;-59
2023/10/18 03:49:22;;;;;;;0.03;0.03;;;;;;;13.31;72.69;99339.66;7364781;19;20018;-60
2023/10/18 03:51:49;;;;;;;0.10;0.10;;;;;;;13.30;73.13;99330.13;7371841;19;20010;-60
2023/10/18 03:54:15;;;;;;;0.10;0.10;;;;;;;13.19;73.26;99310.56;7363628;19;20014;-59
2023/10/18 03:56:42;;;;;;;0.05;0.05;;;;;;;13.32;73.44;99312.50;7360302;19;20034;-59
2023/10/18 03:59:20;;;;;;;0.10;0.10;;;;;;;13.30;72.67;99306.53;7362829;19;20551;-60
2023/10/18 04:02:04;;;;;;;0.10;0.10;;;;;;;13.31;72.89;99313.44;7360990;19;20424;-59
2023/10/18 04:04:37;;;;;;;0.00;0.00;;;;;;;13.36;72.88;99303.53;7356791;19;20420;-59
2023/10/18 04:07:12;;;;;;;0.10;0.10;;;;;;;13.38;72.93;99307.78;7363831;19;20010;-59
2023/10/18 04:09:46;;;;;;;0.10;0.10;;;;;;;13.38;72.86;99294.69;7363821;19;20477;-59
2023/10/18 04:12:17;;;;;;;0.05;0.05;;;;;;;13.37;73.33;99286.88;7366362;19;20019;-59
2023/10/18 04:14:50;;;;;;;0.00;0.00;;;;;;;13.38;73.05;99291.19;7361469;19;20020;-59
2023/10/18 04:17:19;;;;;;;0.10;0.10;;;;;;;13.37;73.18;99300.00;7365425;19;20015;-59
2023/10/18 04:19:44;;;;;;;0.10;0.10;;;;;;;13.35;72.97;99278.25;7356275;19;20598;-60
2023/10/18 04:22:09;;;;;;;0.10;0.10;;;;;;;13.39;73.21;99278.00;7355773;19;20013;-60
2023/10/18 04:24:35;;;;;;;0.10;0.10;;;;;;;13.42;73.20;99272.56;7364626;19;20025;-59
2023/10/18 04:27:04;;;;;;;0.10;0.10;;;;;;;13.43;73.34;99263.78;7366006;19;20770;-60
2023/10/18 04:29:33;;;;;;;0.10;0.10;;;;;;;13.44;73.09;99262.00;7356272;19;20038;-60
2023/10/18 04:32:05;;;;;;;0.10;0.10;;;;;;;13.47;73.26;99246.09;7360786;19;20829;-59
2023/10/18 04:34:33;;;;;;;0.00;0.00;;;;;;;13.37;73.23;99227.41;7364971;19;20010;-59
2023/10/18 04:37:05;;;;;;;0.00;0.00;;;;;;;13.49;73.36;99246.88;7364056;19;20106;-59
2023/10/18 04:39:31;;;;;;;0.10;0.10;;;;;;;13.36;72.98;99222.28;7362665;19;21648;-59
2023/10/18 04:41:57;;;;;;;0.00;0.00;;;;;;;13.48;73.64;99234.66;7368490;19;20492;-59
2023/10/18 04:44:23;;;;;;;0.10;0.10;;;;;;;13.55;73.51;99249.13;7359466;19;20462;-60
2023/10/18 04:46:52;;;;;;;0.10;0.10;;;;;;;13.56;73.26;99242.94;7360269;19;20010;-60
2023/10/18 04:49:23;;;;;;;0.10;0.10;;;;;;;13.58;73.49;99240.22;7356443;19;20011;-59
2023/10/18 04:51:48;;;;;;;0.10;0.10;;;;;;;13.59;73.44;99227.03;7362972;19;20367;-59
2023/10/18 04:54:35;;;;;;;0.00;0.00;;;;;;;13.61;73.02;99217.28;7350280;19;20021;-59
2023/10/18 04:57:04;;;;;;;0.10;0.10;;;;;;;13.53;73.38;99193.28;7362794;19;20828;-59
2023/10/18 04:59:34;;;;;;;0.10;0.10;;;;;;;13.63;73.04;99199.66;7366879;19;20621;-59
2023/10/18 05:01:59;;;;;;;0.08;0.08;;;;;;;13.65;73.44;99197.81;7359381;19;20033;-60
2023/10/18 05:04:31;;;;;;;0.10;0.10;;;;;;;13.66;73.11;99188.16;7352776;19;20420;-59
2023/10/18 05:07:14;;;;;;;0.10;0.10;;;;;;;13.54;73.21;99166.13;7362943;19;20025;-60
2023/10/18 05:09:43;;;;;;;0.10;0.10;;;;;;;13.67;73.25;99185.44;7362595;19;20017;-59
2023/10/18 05:15:09;;;;;;;0.05;0.05;;;;;;;13.70;72.94;99174.78;7360104;19;20019;-59
2023/10/18 05:17:43;;;;;;;0.10;0.10;;;;;;;13.70;73.11;99173.94;7360443;19;20006;-59
2023/10/18 05:22:50;;;;;;;0.10;0.10;;;;;;;13.72;72.93;99161.56;7360374;19;20011;-59
2023/10/18 05:43:49;;;;;;;0.10;0.10;;;;;;;13.79;72.94;99130.53;7373352;19;20023;-59
2023/10/18 05:46:14;;;;;;;0.10;0.10;;;;;;;13.77;73.07;99118.34;7375498;19;20028;-59
2023/10/18 05:48:42;;;;;;;0.00;0.00;;;;;;;13.82;73.14;99122.50;7371166;19;20015;-60
2023/10/18 05:51:26;;;;;;;0.00;0.00;;;;;;;13.82;73.40;99117.25;7366992;19;20125;-59
2023/10/18 05:53:59;;;;;;;0.10;0.10;;;;;;;13.83;73.17;99117.13;7355397;19;20018;-59
2023/10/18 05:56:37;;;;;;;0.10;0.10;;;;;;;13.87;72.27;99115.19;7367539;19;20021;-60
2023/10/18 05:59:27;;;;;;;0.00;0.00;;;;;;;13.87;72.88;99107.31;7361884;19;20725;-59
2023/10/18 06:01:58;;;;;;;0.10;0.10;;;;;;;13.88;72.51;99103.75;7364858;19;20014;-59
2023/10/18 06:04:24;;;;;;;0.10;0.10;;;;;;;13.89;72.85;99103.66;7368352;19;19998;-59
2023/10/18 06:06:59;;;;;;;0.10;0.10;;;;;;;13.92;72.95;99089.50;7365354;19;20007;-59
2023/10/18 06:09:32;;;;;;;0.00;0.00;;;;;;;13.92;73.09;99092.97;7368260;19;20427;-59
2023/10/18 06:12:00;;;;;;;0.10;0.10;;;;;;;13.92;72.73;99084.25;7365387;19;20009;-59
2023/10/18 06:14:33;;;;;;;0.10;0.10;;;;;;;13.95;73.09;99074.41;7373429;19;20017;-60
2023/10/18 06:17:06;;;;;;;0.10;0.10;;;;;;;13.97;72.16;99071.69;7367587;19;20090;-59
2023/10/18 06:19:32;;;;;;;0.10;0.10;;;;;;;13.98;72.55;99065.50;7362666;19;20038;-60
2023/10/18 06:21:58;;;;;;;0.00;0.00;;;;;;;14.01;72.77;99057.44;7367318;19;20014;-59
2023/10/18 06:24:26;;;;;;;0.10;0.10;;;;;;;14.01;72.14;99045.16;7364525;19;20597;-59
2023/10/18 06:26:52;;;;;;;0.10;0.10;;;;;;;13.96;72.73;99043.75;7365101;19;20360;-59
2023/10/18 06:29:24;;;;;;;0.00;0.00;;;;;;;13.91;72.50;99030.09;7366931;19;20002;-59
2023/10/18 06:31:50;;;;;;;0.10;0.10;;;;;;;13.96;72.62;99038.50;7364873;19;20019;-59
2023/10/18 06:34:21;;;;;;;0.10;0.10;;;;;;;14.10;72.28;99062.13;7362568;19;20354;-60
2023/10/18 06:36:49;;;;;;;0.05;0.05;;;;;;;14.10;72.72;99051.63;7358754;19;20007;-59
2023/10/18 06:39:27;;;;;;;0.08;0.08;;;;;;;14.11;72.40;99053.28;7361388;19;20094;-59
2023/10/18 06:41:56;;;;;;;0.00;0.00;;;;;;;14.09;72.82;99042.06;7367546;19;20048;-59
2023/10/18 06:44:33;;;;;;;0.00;0.00;;;;;;;14.13;72.81;99048.78;7334251;19;20010;-59
2023/10/18 06:47:01;;;;;;;0.10;0.10;;;;;;;14.15;72.39;99048.69;7362300;19;20017;-59
2023/10/18 06:49:27;;;;;;;0.10;0.10;;;;;;;14.15;72.93;99041.66;7362165;19;20457;-59
2023/10/18 06:51:52;;;;;;;0.10;0.10;;;;;;;14.15;72.38;99033.78;7365303;19;20066;-59
2023/10/18 06:54:30;;;;;;;0.00;0.00;;;;;;;14.17;72.54;99031.88;7357880;19;20002;-59
2023/10/18 06:56:57;;;;;;;0.10;0.10;;;;;;;14.19;72.67;99034.41;7360236;19;20016;-59
2023/10/18 06:59:27;;;;;;;0.10;0.10;;;;;;;14.16;72.52;99022.34;7362878;19;20478;-59
2023/10/18 07:01:59;;;;;;;0.00;0.00;;;;;;;14.20;73.08;99031.72;7362699;19;20026;-59
2023/10/18 07:04:28;;;;;;;0.00;0.00;;;;;;;14.19;73.09;99035.28;7363418;19;20034;-59
2023/10/18 07:06:57;;;;;;;0.10;0.10;;;;;;;14.24;72.65;99027.94;7369846;19;20015;-60
2023/10/18 07:09:25;;;;;;;0.10;0.10;;;;;;;14.21;72.75;99022.03;7362472;19;20014;-59
2023/10/18 07:11:57;;;;;;;0.10;0.10;;;;;;;14.26;72.41;99028.69;7364843;19;20026;-60
2023/10/18 07:14:24;;;;;;;0.10;0.10;;;;;;;14.25;72.65;99029.63;7365176;19;20048;-60
2023/10/18 07:16:54;;;;;;;0.10;0.10;;;;;;;14.23;72.59;99026.25;7356485;19;20422;-60
2023/10/18 07:19:26;;;;;;;0.10;0.10;;;;;;;14.26;72.51;99028.69;7362207;19;20709;-59
2023/10/18 07:21:53;;;;;;;0.10;0.10;;;;;;;14.27;72.41;99011.13;7358994;19;20010;-59
2023/10/18 07:24:25;;;;;;;0.10;0.10;;;;;;;14.26;72.48;99012.94;7367881;19;20007;-59
2023/10/18 07:26:53;;;;;;;0.10;0.10;;;;;;;14.28;72.73;99003.16;7357554;19;20013;-60
2023/10/18 07:29:20;;;;;;;0.00;0.00;;;;;;;14.28;72.91;99008.41;7358758;19;20010;-59
2023/10/18 07:31:46;;;;;;;0.10;0.10;;;;;;;14.28;73.29;99005.78;7360222;19;20027;-59
2023/10/18 07:34:36;;;;;;;0.10;0.10;;;;;;;14.29;73.07;99004.00;7354379;19;20090;-59
2023/10/18 07:37:00;;;;;;;0.10;0.10;;;;;;;14.30;73.31;99010.13;7356104;19;20021;-60
2023/10/18 07:39:25;;;;;;;;;;;;;;;14.37;70.71;99006.97;7362194;19;20011;-58
2023/10/18 07:41:55;;;;;;;0.10;0.10;;;;;;;14.32;72.95;99014.31;7360712;19;19922;-60
2023/10/18 07:44:20;;;;;;;0.10;0.10;;;;;;;14.33;72.62;99009.91;7361144;19;20016;-59
2023/10/18 07:46:46;;;;;;;0.10;0.10;;;;;;;14.33;73.07;99004.66;7362546;19;20010;-59
2023/10/18 07:49:14;;;;;;;0.10;0.10;;;;;;;14.33;73.35;99005.47;7356543;19;20026;-59
2023/10/18 07:51:48;;;;;;;0.10;0.10;;;;;;;14.35;72.87;98993.13;7364409;19;20038;-60
2023/10/18 07:54:20;;;;;;;0.00;0.00;;;;;;;14.34;73.26;98993.19;7353989;19;20014;-60
2023/10/18 07:56:55;;;;;;;0.10;0.10;;;;;;;14.25;73.43;98977.13;7329394;19;20011;-59
2023/10/18 07:59:28;;;;;;;0.00;0.00;;;;;;;14.35;73.57;98987.03;7360176;19;20426;-59
2023/10/18 08:02:12;;;;;;;0.10;0.10;;;;;;;14.27;73.47;98985.72;7358091;19;20363;-59
2023/10/18 08:04:43;;;;;;;0.10;0.10;;;;;;;14.40;73.22;98991.03;7352020;19;20350;-59
2023/10/18 08:07:10;;;;;;;0.10;0.10;;;;;;;14.36;73.91;98983.44;7359835;19;20849;-59
2023/10/18 08:09:39;;;;;;;0.10;0.10;;;;;;;14.28;73.64;98966.41;7353669;19;20086;-59
2023/10/18 08:12:06;;;;;;;0.10;0.10;;;;;;;14.45;73.99;98990.72;7359425;19;20026;-60
2023/10/18 08:14:33;;;;;;;0.10;0.10;;;;;;;14.41;73.66;98981.38;7354239;19;20010;-59
2023/10/18 08:17:08;;;;;;;0.10;0.10;;;;;;;14.47;73.45;98991.47;7357466;19;20043;-60
2023/10/18 08:19:43;;;;;;;0.00;0.00;;;;;;;14.38;74.06;98971.06;7358787;19;20003;-60
2023/10/18 08:24:35;;;;;;;0.10;0.10;;;;;;;14.51;73.96;98971.97;7356500;19;20014;-60
2023/10/18 08:27:10;;;;;;;0.00;0.00;;;;;;;14.56;73.24;98975.13;7354816;19;20029;-59
2023/10/18 08:29:39;;;;;;;0.03;0.03;;;;;;;14.57;73.49;98971.56;7353889;19;20572;-59
2023/10/18 08:32:18;;;;;;;0.00;0.00;;;;;;;14.53;73.92;98963.03;7366108;19;20022;-59
2023/10/18 08:34:45;;;;;;;0.00;0.00;;;;;;;14.57;73.90;98960.22;7358676;19;20002;-60
2023/10/18 08:37:13;;;;;;;0.10;0.10;;;;;;;14.58;73.75;98957.47;7359866;19;20362;-59
2023/10/18 08:39:52;;;;;;;0.10;0.10;;;;;;;14.57;73.79;98954.94;7355059;19;20038;-59
2023/10/18 08:42:23;;;;;;;0.10;0.10;;;;;;;14.61;74.08;98952.03;7357838;19;20014;-59
2023/10/18 08:45:03;;;;;;;0.00;0.00;;;;;;;14.62;73.82;98947.59;7357865;19;20351;-59
2023/10/18 08:47:34;;;;;;;0.10;0.10;;;;;;;14.63;74.19;98934.34;7355150;19;20105;-59
2023/10/18 08:50:00;;;;;;;0.10;0.10;;;;;;;14.53;73.96;98912.28;7353639;19;20006;-60
2023/10/18 08:52:34;;;;;;;0.00;0.00;;;;;;;14.70;73.81;98934.78;7349184;19;20021;-59
2023/10/18 08:55:19;;;;;;;0.10;0.10;;;;;;;14.63;74.08;98917.75;7358501;19;20017;-59
2023/10/18 08:57:46;;;;;;;0.10;0.10;;;;;;;14.70;74.00;98930.38;7358756;19;20031;-59
2023/10/18 09:01:03;;;;;;;0.10;0.10;;;;;;;14.72;74.05;98920.59;7356011;19;20026;-59
2023/10/18 09:03:03;;;;;;;0.00;0.00;;;;;;;14.75;74.43;98916.91;7352138;19;20006;-59
2023/10/18 09:05:30;;;;;;;0.10;0.10;;;;;;;14.76;74.02;98913.38;7352705;19;20062;-59
2023/10/18 09:08:03;;;;;;;0.10;0.10;;;;;;;14.78;74.07;98912.28;7353175;19;20449;-60
2023/10/18 09:18:20;;;;;;;0.10;0.10;;;;;;;14.86;74.16;98903.06;7366595;19;20348;-59
2023/10/18 09:20:46;;;;;;;0.10;0.10;;;;;;;14.87;74.23;98905.56;7368570;19;20017;-59
2023/10/18 09:23:19;;;;;;;0.00;0.00;;;;;;;14.91;73.97;98895.69;7365754;19;20030;-59
2023/10/18 09:25:48;;;;;;;0.00;0.00;;;;;;;14.90;74.18;98891.38;7358505;19;20015;-60
2023/10/18 09:28:25;;;;;;;0.10;0.10;;;;;;;14.94;74.16;98895.47;7365275;19;20020;-59
2023/10/18 09:31:11;;;;;;;;;;;;;;;15.01;72.29;98880.97;7358891;19;20006;-59
2023/10/18 09:33:48;;;;;;;0.10;0.10;;;;;;;14.97;73.98;98887.38;7363574;19;20337;-59
2023/10/18 09:36:23;;;;;;;0.10;0.10;;;;;;;14.97;74.29;98882.13;7360174;19;20060;-59
2023/10/18 09:38:51;;;;;;;0.10;0.10;;;;;;;14.96;74.02;98873.41;7362541;19;20413;-59
2023/10/18 09:41:17;;;;;;;0.13;0.13;;;;;;;14.99;73.78;98877.59;7360181;19;20074;-59
2023/10/18 09:43:44;;;;;;;0.10;0.10;;;;;;;15.00;74.21;98876.63;7363394;19;20107;-59
2023/10/18 09:46:10;;;;;;;0.10;0.10;;;;;;;15.01;74.46;98870.47;7362885;19;20041;-60
2023/10/18 09:48:41;;;;;;;0.10;0.10;;;;;;;15.07;74.38;98870.03;7367980;19;20046;-59
2023/10/18 09:51:07;;;;;;;0.10;0.10;;;;;;;15.06;74.35;98868.34;7362027;19;20447;-59
2023/10/18 09:53:41;;;;;;;0.03;0.03;;;;;;;14.99;74.38;98846.03;7357459;19;20010;-59
2023/10/18 09:56:12;;;;;;;0.10;0.10;;;;;;;15.11;74.29;98858.34;7361348;19;20360;-57
2023/10/18 09:58:42;;;;;;;0.00;0.00;;;;;;;15.16;73.88;98858.84;7365720;19;20027;-60
2023/10/18 10:01:25;;;;;;;0.10;0.10;;;;;;;15.21;74.29;98855.91;7362842;19;20019;-60
2023/10/18 10:03:52;;;;;;;0.10;0.10;;;;;;;15.22;74.13;98855.78;7361329;19;20850;-59
2023/10/18 10:06:23;;;;;;;0.10;0.10;;;;;;;15.26;73.93;98844.09;7365308;19;20007;-59
2023/10/18 10:09:17;;;;;;;0.00;0.00;;;;;;;15.28;73.76;98842.19;7359550;19;20632;-60
2023/10/18 10:11:45;;;;;;;0.10;0.10;;;;;;;15.29;74.05;98843.03;7361619;19;20014;-59
2023/10/18 10:14:15;;;;;;;0.10;0.10;;;;;;;15.29;73.98;98835.97;7362314;19;20018;-59
2023/10/18 10:16:45;;;;;;;0.10;0.10;;;;;;;15.32;73.79;98832.31;7359948;19;20474;-59
2023/10/18 10:19:12;;;;;;;0.10;0.10;;;;;;;15.34;74.38;98824.28;7362875;19;20018;-58
2023/10/18 10:21:40;;;;;;;0.10;0.10;;;;;;;15.38;74.16;98821.34;7366418;19;20010;-59
2023/10/18 10:26:52;;;;;;;0.03;0.03;;;;;;;15.40;73.57;98802.81;7361569;19;19949;-60
2023/10/18 10:31:58;;;;;;;0.10;0.10;;;;;;;15.48;73.68;98809.19;7363670;19;20002;-59
2023/10/18 10:34:32;;;;;;;0.10;0.10;;;;;;;15.53;73.70;98800.97;7368042;19;20796;-59
2023/10/18 10:37:07;;;;;;;0.08;0.08;;;;;;;15.55;73.86;98801.69;7364039;19;20078;-59
2023/10/18 10:39:35;;;;;;;0.10;0.10;;;;;;;15.55;74.18;98801.69;7369993;19;20098;-59
2023/10/18 10:42:19;;;;;;;0.10;0.10;;;;;;;15.45;73.75;98769.94;7364906;19;20007;-59
2023/10/18 10:47:44;;;;;;;0.10;0.10;;;;;;;15.60;73.85;98775.88;7353517;19;20011;-59
2023/10/18 10:50:10;;;;;;;0.10;0.10;;;;;;;15.63;74.08;98785.34;7363423;19;20041;-59
2023/10/18 10:52:40;;;;;;;0.00;0.00;;;;;;;15.63;74.29;98778.31;7362174;19;20027;-60
2023/10/18 10:55:21;;;;;;;0.10;0.10;;;;;;;15.70;73.65;98779.53;7356096;19;20089;-59
2023/10/18 10:57:48;;;;;;;0.10;0.10;;;;;;;15.68;74.04;98770.09;7357055;19;20006;-59
2023/10/18 11:03:06;;;;;;;0.10;0.10;;;;;;;15.75;73.80;98760.78;7364457;19;20023;-59
2023/10/18 11:05:36;;;;;;;0.10;0.10;;;;;;;15.65;74.19;98736.94;7348472;19;20017;-59
2023/10/18 11:08:01;;;;;;;0.10;0.10;;;;;;;15.77;74.14;98753.63;7363822;19;20018;-59
2023/10/18 11:10:28;;;;;;;0.10;0.10;;;;;;;15.82;74.24;98751.47;7368016;19;20015;-59
2023/10/18 11:12:54;;;;;;;0.10;0.10;;;;;;;15.86;74.02;98746.81;7363666;19;20511;-59
2023/10/18 11:15:27;;;;;;;0.00;0.00;;;;;;;15.90;73.84;98748.25;7359419;19;20110;-59
2023/10/18 11:17:53;;;;;;;0.10;0.10;;;;;;;15.93;73.75;98740.13;7359128;19;20006;-59
2023/10/18 11:20:30;;;;;;;0.10;0.10;;;;;;;15.99;73.80;98739.66;7362418;19;20014;-59
2023/10/18 11:22:56;;;;;;;0.10;0.10;;;;;;;15.98;73.61;98738.00;7360760;19;20655;-60
2023/10/18 11:25:30;;;;;;;0.10;0.10;;;;;;;16.00;74.12;98733.44;7363043;19;20018;-59
2023/10/18 11:28:10;;;;;;;0.10;0.10;;;;;;;16.04;73.61;98727.00;7358215;19;20014;-59
2023/10/18 11:30:37;;;;;;;0.10;0.10;;;;;;;16.02;73.83;98724.47;7359085;19;20424;-59
2023/10/18 11:33:03;;;;;;;0.20;0.20;;;;;;;16.02;74.13;98719.22;7360906;19;20048;-59
2023/10/18 11:38:10;;;;;;;0.10;0.10;;;;;;;16.07;73.68;98713.59;7359967;19;20014;-59
2023/10/18 11:40:40;;;;;;;0.00;0.00;;;;;;;16.06;73.96;98706.63;7362944;19;20045;-59
2023/10/18 11:43:08;;;;;;;0.10;0.10;;;;;;;16.08;73.75;98702.09;7362379;19;20031;-59
2023/10/18 11:45:36;;;;;;;0.10;0.10;;;;;;;16.09;74.02;98693.25;7357415;19;20031;-59
2023/10/18 11:48:02;;;;;;;0.10;0.10;;;;;;;16.13;73.66;98691.22;7360077;19;20017;-59
2023/10/18 11:50:47;;;;;;;0.10;0.10;;;;;;;16.21;72.88;98688.81;7358809;19;20011;-59
2023/10/18 11:53:15;;;;;;;0.00;0.00;;;;;;;16.19;73.87;98681.03;7359233;19;20368;-59
2023/10/18 11:55:56;;;;;;;0.00;0.00;;;;;;;16.24;73.40;98684.16;7352997;19;20082;-59
2023/10/18 11:58:27;;;;;;;0.10;0.10;;;;;;;16.24;73.70;98673.63;7360752;19;20010;-59
2023/10/18 12:00:58;;;;;;;0.13;0.13;;;;;;;16.23;73.94;98671.94;7357519;19;20506;-59
2023/10/18 12:03:27;;;;;;;0.10;0.10;;;;;;;16.23;74.08;98671.94;7361708;19;20467;-59
2023/10/18 12:05:56;;;;;;;0.10;0.10;;;;;;;16.17;73.93;98651.38;7359660;19;20040;-59
2023/10/18 12:08:23;;;;;;;0.10;0.10;;;;;;;16.26;73.87;98658.53;7361496;19;20073;-59
2023/10/18 12:10:49;;;;;;;0.10;0.10;;;;;;;16.23;73.88;98642.97;7352516;19;20564;-59
2023/10/18 12:13:17;;;;;;;0.10;0.10;;;;;;;16.18;73.99;98618.81;7354323;19;20048;-60
2023/10/18 12:15:42;;;;;;;;;;;;;;;16.41;72.34;98629.28;7360036;19;20014;-59
2023/10/18 12:18:09;;;;;;;0.10;0.10;;;;;;;16.39;73.62;98633.88;7362660;19;19923;-59
2023/10/18 12:20:35;;;;;;;0.10;0.10;;;;;;;16.40;74.00;98625.81;7357869;19;20019;-59
2023/10/18 12:23:02;;;;;;;0.10;0.10;;;;;;;16.39;74.07;98610.16;7357659;19;20007;-59
2023/10/18 12:25:28;;;;;;;0.07;0.07;;;;;;;16.31;73.86;98601.06;7358678;19;20086;-59
2023/10/18 12:27:55;;;;;;;0.00;0.00;;;;;;;16.38;73.98;98598.78;7357011;19;20573;-59
2023/10/18 12:30:27;;;;;;;0.10;0.10;;;;;;;16.33;73.85;98587.78;7357150;19;20013;-60
2023/10/18 12:32:57;;;;;;;0.03;0.03;;;;;;;16.43;74.15;98612.44;7360291;19;20582;-59
2023/10/18 12:35:28;;;;;;;0.03;0.03;;;;;;;16.41;74.06;98595.88;7353778;19;20011;-59
2023/10/18 12:37:54;;;;;;;0.00;0.00;;;;;;;16.27;73.82;98575.94;7358105;19;20365;-59